sensor_id;sensor_type;location;lat;lon;timestamp;P1;durP1;ratioP1;P2;durP2;ratioP2
80707;SDS011;70222;49.204;-122.940;2023-07-08T00:02:47;6.30;;;3.95;;
80707;SDS011;70222;49.204;-122.940;2023-07-08T00:05:14;6.80;;;4.10;;
80707;SDS011;70222;49.204;-122.940;2023-07-08T00:07:42;6.15;;;4.15;;
80707;SDS011;70222;49.204;-122.940;2023-07-08T00:12:45;6.10;;;4.10;;
80707;SDS011;70222;49.204;-122.940;2023-07-08T00:15:13;5.68;;;5.07;;
80707;SDS011;70222;49.204;-122.940;2023-07-08T00:17:39;6.30;;;4.15;;
80707;SDS011;70222;49.204;-122.940;2023-07-08T00:20:13;5.80;;;3.92;;
80707;SDS011;70222;49.204;-122.940;2023-07-08T00:22:54;5.32;;;3.88;;
80707;SDS011;70222;49.204;-122.940;2023-07-08T00:25:20;5.90;;;4.00;;
80707;SDS011;70222;49.204;-122.940;2023-07-08T00:27:47;9.13;;;4.85;;
80707;SDS011;70222;49.204;-122.940;2023-07-08T00:30:24;6.22;;;4.45;;
80707;SDS011;70222;49.204;-122.940;2023-07-08T00:32:51;6.72;;;3.92;;
80707;SDS011;70222;49.204;-122.940;2023-07-08T00:35:26;7.82;;;3.83;;
80707;SDS011;70222;49.204;-122.940;2023-07-08T00:38:00;6.32;;;4.47;;
80707;SDS011;70222;49.204;-122.940;2023-07-08T00:40:31;8.55;;;4.57;;
80707;SDS011;70222;49.204;-122.940;2023-07-08T00:42:59;7.55;;;4.15;;
80707;SDS011;70222;49.204;-122.940;2023-07-08T00:45:44;6.28;;;3.95;;
80707;SDS011;70222;49.204;-122.940;2023-07-08T00:50:47;6.93;;;4.05;;
80707;SDS011;70222;49.204;-122.940;2023-07-08T00:58:49;5.13;;;3.60;;
80707;SDS011;70222;49.204;-122.940;2023-07-08T01:01:17;6.85;;;4.25;;
80707;SDS011;70222;49.204;-122.940;2023-07-08T01:03:48;6.05;;;4.03;;
80707;SDS011;70222;49.204;-122.940;2023-07-08T01:06:26;7.10;;;3.55;;
80707;SDS011;70222;49.204;-122.940;2023-07-08T01:08:57;7.75;;;4.20;;
80707;SDS011;70222;49.204;-122.940;2023-07-08T01:11:31;6.38;;;3.40;;
80707;SDS011;70222;49.204;-122.940;2023-07-08T01:13:58;5.55;;;3.40;;
80707;SDS011;70222;49.204;-122.940;2023-07-08T01:16:25;5.38;;;3.22;;
80707;SDS011;70222;49.204;-122.940;2023-07-08T01:18:52;6.13;;;3.30;;
80707;SDS011;70222;49.204;-122.940;2023-07-08T01:21:32;5.85;;;3.42;;
80707;SDS011;70222;49.204;-122.940;2023-07-08T01:24:02;5.43;;;2.95;;
80707;SDS011;70222;49.204;-122.940;2023-07-08T01:26:31;4.40;;;3.20;;
80707;SDS011;70222;49.204;-122.940;2023-07-08T01:28:59;5.75;;;3.20;;
80707;SDS011;70222;49.204;-122.940;2023-07-08T01:31:25;5.53;;;2.83;;
80707;SDS011;70222;49.204;-122.940;2023-07-08T01:33:52;6.20;;;3.00;;
80707;SDS011;70222;49.204;-122.940;2023-07-08T01:36:18;6.20;;;3.92;;
80707;SDS011;70222;49.204;-122.940;2023-07-08T01:38:44;5.15;;;3.25;;
80707;SDS011;70222;49.204;-122.940;2023-07-08T01:41:11;4.88;;;2.80;;
80707;SDS011;70222;49.204;-122.940;2023-07-08T01:43:39;4.47;;;3.28;;
80707;SDS011;70222;49.204;-122.940;2023-07-08T01:46:07;6.00;;;3.03;;
80707;SDS011;70222;49.204;-122.940;2023-07-08T01:48:52;5.07;;;2.75;;
80707;SDS011;70222;49.204;-122.940;2023-07-08T01:51:22;3.88;;;3.00;;
80707;SDS011;70222;49.204;-122.940;2023-07-08T01:53:50;8.38;;;3.72;;
80707;SDS011;70222;49.204;-122.940;2023-07-08T01:59:39;4.75;;;3.58;;
80707;SDS011;70222;49.204;-122.940;2023-07-08T02:02:05;6.60;;;3.63;;
80707;SDS011;70222;49.204;-122.940;2023-07-08T02:04:31;4.35;;;3.08;;
80707;SDS011;70222;49.204;-122.940;2023-07-08T02:06:58;4.90;;;3.67;;
80707;SDS011;70222;49.204;-122.940;2023-07-08T02:09:25;6.75;;;3.47;;
80707;SDS011;70222;49.204;-122.940;2023-07-08T02:11:52;7.70;;;4.25;;
80707;SDS011;70222;49.204;-122.940;2023-07-08T02:14:19;6.85;;;4.45;;
80707;SDS011;70222;49.204;-122.940;2023-07-08T02:16:45;6.65;;;3.58;;
80707;SDS011;70222;49.204;-122.940;2023-07-08T02:19:11;4.68;;;3.40;;
80707;SDS011;70222;49.204;-122.940;2023-07-08T02:21:37;6.18;;;3.63;;
80707;SDS011;70222;49.204;-122.940;2023-07-08T02:24:04;4.55;;;3.03;;
80707;SDS011;70222;49.204;-122.940;2023-07-08T02:26:31;5.53;;;3.10;;
80707;SDS011;70222;49.204;-122.940;2023-07-08T02:28:57;4.07;;;3.33;;
80707;SDS011;70222;49.204;-122.940;2023-07-08T02:31:26;6.72;;;2.90;;
80707;SDS011;70222;49.204;-122.940;2023-07-08T02:33:52;5.88;;;3.42;;
80707;SDS011;70222;49.204;-122.940;2023-07-08T02:36:19;6.85;;;2.90;;
80707;SDS011;70222;49.204;-122.940;2023-07-08T02:38:45;4.13;;;3.00;;
80707;SDS011;70222;49.204;-122.940;2023-07-08T02:41:11;4.00;;;2.78;;
80707;SDS011;70222;49.204;-122.940;2023-07-08T02:43:38;4.45;;;2.92;;
80707;SDS011;70222;49.204;-122.940;2023-07-08T02:46:04;4.47;;;2.53;;
80707;SDS011;70222;49.204;-122.940;2023-07-08T02:48:30;4.70;;;2.25;;
80707;SDS011;70222;49.204;-122.940;2023-07-08T02:51:00;5.35;;;2.88;;
80707;SDS011;70222;49.204;-122.940;2023-07-08T02:53:27;4.00;;;2.90;;
80707;SDS011;70222;49.204;-122.940;2023-07-08T02:55:53;5.00;;;2.33;;
80707;SDS011;70222;49.204;-122.940;2023-07-08T02:58:19;4.68;;;2.85;;
80707;SDS011;70222;49.204;-122.940;2023-07-08T03:00:50;3.83;;;2.50;;
80707;SDS011;70222;49.204;-122.940;2023-07-08T03:03:19;5.75;;;2.55;;
80707;SDS011;70222;49.204;-122.940;2023-07-08T03:05:53;3.97;;;2.42;;
80707;SDS011;70222;49.204;-122.940;2023-07-08T03:10:57;3.53;;;2.30;;
80707;SDS011;70222;49.204;-122.940;2023-07-08T03:13:25;3.67;;;2.20;;
80707;SDS011;70222;49.204;-122.940;2023-07-08T03:15:51;3.33;;;2.42;;
80707;SDS011;70222;49.204;-122.940;2023-07-08T03:18:17;3.53;;;2.30;;
80707;SDS011;70222;49.204;-122.940;2023-07-08T03:20:47;4.30;;;2.63;;
80707;SDS011;70222;49.204;-122.940;2023-07-08T03:23:13;4.82;;;2.35;;
80707;SDS011;70222;49.204;-122.940;2023-07-08T03:25:40;6.35;;;2.42;;
80707;SDS011;70222;49.204;-122.940;2023-07-08T03:28:06;3.58;;;2.50;;
80707;SDS011;70222;49.204;-122.940;2023-07-08T03:30:39;6.97;;;2.65;;
80707;SDS011;70222;49.204;-122.940;2023-07-08T03:33:06;5.32;;;2.72;;
80707;SDS011;70222;49.204;-122.940;2023-07-08T03:35:33;5.13;;;2.88;;
80707;SDS011;70222;49.204;-122.940;2023-07-08T03:37:59;5.88;;;2.67;;
80707;SDS011;70222;49.204;-122.940;2023-07-08T03:40:25;6.97;;;2.72;;
80707;SDS011;70222;49.204;-122.940;2023-07-08T03:42:51;4.13;;;2.50;;
80707;SDS011;70222;49.204;-122.940;2023-07-08T03:45:17;3.72;;;2.53;;
80707;SDS011;70222;49.204;-122.940;2023-07-08T03:47:43;5.15;;;2.50;;
80707;SDS011;70222;49.204;-122.940;2023-07-08T03:50:16;5.03;;;2.50;;
80707;SDS011;70222;49.204;-122.940;2023-07-08T03:52:45;4.30;;;2.28;;
80707;SDS011;70222;49.204;-122.940;2023-07-08T03:55:12;4.50;;;2.22;;
80707;SDS011;70222;49.204;-122.940;2023-07-08T03:57:38;3.17;;;2.30;;
80707;SDS011;70222;49.204;-122.940;2023-07-08T04:00:05;3.95;;;2.17;;
80707;SDS011;70222;49.204;-122.940;2023-07-08T04:02:35;4.65;;;2.63;;
80707;SDS011;70222;49.204;-122.940;2023-07-08T04:05:02;4.38;;;2.53;;
80707;SDS011;70222;49.204;-122.940;2023-07-08T04:07:28;3.53;;;2.28;;
80707;SDS011;70222;49.204;-122.940;2023-07-08T04:09:54;4.65;;;2.60;;
80707;SDS011;70222;49.204;-122.940;2023-07-08T04:12:21;4.47;;;2.50;;
80707;SDS011;70222;49.204;-122.940;2023-07-08T04:14:47;4.20;;;2.25;;
80707;SDS011;70222;49.204;-122.940;2023-07-08T04:17:13;3.63;;;2.47;;
80707;SDS011;70222;49.204;-122.940;2023-07-08T04:19:39;4.25;;;2.13;;
80707;SDS011;70222;49.204;-122.940;2023-07-08T04:22:09;4.68;;;2.70;;
80707;SDS011;70222;49.204;-122.940;2023-07-08T04:24:35;5.07;;;2.65;;
80707;SDS011;70222;49.204;-122.940;2023-07-08T04:27:02;4.47;;;2.90;;
80707;SDS011;70222;49.204;-122.940;2023-07-08T04:29:28;4.68;;;2.67;;
80707;SDS011;70222;49.204;-122.940;2023-07-08T04:31:54;4.20;;;2.30;;
80707;SDS011;70222;49.204;-122.940;2023-07-08T04:34:20;4.22;;;2.80;;
80707;SDS011;70222;49.204;-122.940;2023-07-08T04:36:46;3.95;;;2.50;;
80707;SDS011;70222;49.204;-122.940;2023-07-08T04:39:13;3.63;;;2.50;;
80707;SDS011;70222;49.204;-122.940;2023-07-08T04:41:39;4.10;;;2.70;;
80707;SDS011;70222;49.204;-122.940;2023-07-08T04:44:09;4.65;;;2.17;;
80707;SDS011;70222;49.204;-122.940;2023-07-08T04:46:45;3.72;;;2.35;;
80707;SDS011;70222;49.204;-122.940;2023-07-08T04:49:16;4.80;;;2.60;;
80707;SDS011;70222;49.204;-122.940;2023-07-08T04:51:43;3.67;;;2.92;;
80707;SDS011;70222;49.204;-122.940;2023-07-08T04:54:09;3.58;;;2.15;;
80707;SDS011;70222;49.204;-122.940;2023-07-08T04:56:37;4.63;;;2.70;;
80707;SDS011;70222;49.204;-122.940;2023-07-08T04:59:08;3.55;;;2.40;;
80707;SDS011;70222;49.204;-122.940;2023-07-08T05:01:35;4.45;;;2.35;;
80707;SDS011;70222;49.204;-122.940;2023-07-08T05:04:02;4.75;;;2.85;;
80707;SDS011;70222;49.204;-122.940;2023-07-08T05:06:30;4.82;;;2.97;;
80707;SDS011;70222;49.204;-122.940;2023-07-08T05:09:00;6.38;;;2.40;;
80707;SDS011;70222;49.204;-122.940;2023-07-08T05:11:28;4.30;;;2.50;;
80707;SDS011;70222;49.204;-122.940;2023-07-08T05:16:20;5.45;;;3.15;;
80707;SDS011;70222;49.204;-122.940;2023-07-08T05:18:46;4.25;;;2.05;;
80707;SDS011;70222;49.204;-122.940;2023-07-08T05:21:13;3.88;;;2.25;;
80707;SDS011;70222;49.204;-122.940;2023-07-08T05:23:39;4.57;;;2.35;;
80707;SDS011;70222;49.204;-122.940;2023-07-08T05:26:06;3.58;;;2.38;;
80707;SDS011;70222;49.204;-122.940;2023-07-08T05:28:35;5.95;;;2.70;;
80707;SDS011;70222;49.204;-122.940;2023-07-08T05:31:01;4.45;;;2.92;;
80707;SDS011;70222;49.204;-122.940;2023-07-08T05:33:28;4.10;;;2.20;;
80707;SDS011;70222;49.204;-122.940;2023-07-08T05:35:55;5.05;;;2.20;;
80707;SDS011;70222;49.204;-122.940;2023-07-08T05:38:22;5.35;;;2.72;;
80707;SDS011;70222;49.204;-122.940;2023-07-08T05:40:50;4.15;;;2.78;;
80707;SDS011;70222;49.204;-122.940;2023-07-08T05:43:17;3.70;;;2.50;;
80707;SDS011;70222;49.204;-122.940;2023-07-08T05:45:43;4.00;;;2.50;;
80707;SDS011;70222;49.204;-122.940;2023-07-08T05:48:09;3.67;;;2.47;;
80707;SDS011;70222;49.204;-122.940;2023-07-08T05:50:36;5.22;;;2.20;;
80707;SDS011;70222;49.204;-122.940;2023-07-08T05:53:02;4.05;;;2.63;;
80707;SDS011;70222;49.204;-122.940;2023-07-08T05:55:29;9.38;;;4.32;;
80707;SDS011;70222;49.204;-122.940;2023-07-08T05:57:55;4.22;;;2.90;;
80707;SDS011;70222;49.204;-122.940;2023-07-08T06:00:21;5.28;;;2.55;;
80707;SDS011;70222;49.204;-122.940;2023-07-08T06:02:47;4.75;;;2.55;;
80707;SDS011;70222;49.204;-122.940;2023-07-08T06:05:13;5.05;;;2.47;;
80707;SDS011;70222;49.204;-122.940;2023-07-08T06:07:39;4.20;;;2.50;;
80707;SDS011;70222;49.204;-122.940;2023-07-08T06:10:05;3.78;;;2.38;;
80707;SDS011;70222;49.204;-122.940;2023-07-08T06:12:32;3.67;;;2.65;;
80707;SDS011;70222;49.204;-122.940;2023-07-08T06:14:58;4.18;;;2.58;;
80707;SDS011;70222;49.204;-122.940;2023-07-08T06:17:24;3.58;;;2.50;;
80707;SDS011;70222;49.204;-122.940;2023-07-08T06:19:51;6.10;;;2.65;;
80707;SDS011;70222;49.204;-122.940;2023-07-08T06:22:17;5.72;;;2.72;;
80707;SDS011;70222;49.204;-122.940;2023-07-08T06:24:43;3.80;;;2.33;;
80707;SDS011;70222;49.204;-122.940;2023-07-08T06:27:09;4.85;;;2.28;;
80707;SDS011;70222;49.204;-122.940;2023-07-08T06:29:35;3.08;;;2.03;;
80707;SDS011;70222;49.204;-122.940;2023-07-08T06:32:01;4.07;;;2.22;;
80707;SDS011;70222;49.204;-122.940;2023-07-08T06:34:28;3.67;;;2.08;;
80707;SDS011;70222;49.204;-122.940;2023-07-08T06:36:54;3.45;;;2.13;;
80707;SDS011;70222;49.204;-122.940;2023-07-08T06:39:20;3.65;;;2.17;;
80707;SDS011;70222;49.204;-122.940;2023-07-08T06:41:46;3.83;;;2.35;;
80707;SDS011;70222;49.204;-122.940;2023-07-08T06:44:12;4.95;;;2.20;;
80707;SDS011;70222;49.204;-122.940;2023-07-08T06:46:38;3.42;;;1.85;;
80707;SDS011;70222;49.204;-122.940;2023-07-08T06:49:05;4.65;;;2.60;;
80707;SDS011;70222;49.204;-122.940;2023-07-08T06:51:34;3.58;;;2.33;;
80707;SDS011;70222;49.204;-122.940;2023-07-08T06:54:00;4.90;;;2.15;;
80707;SDS011;70222;49.204;-122.940;2023-07-08T06:59:51;3.53;;;2.38;;
80707;SDS011;70222;49.204;-122.940;2023-07-08T07:02:18;3.28;;;2.10;;
80707;SDS011;70222;49.204;-122.940;2023-07-08T07:04:45;4.18;;;2.03;;
80707;SDS011;70222;49.204;-122.940;2023-07-08T07:07:11;4.95;;;2.28;;
80707;SDS011;70222;49.204;-122.940;2023-07-08T07:09:37;3.50;;;2.30;;
80707;SDS011;70222;49.204;-122.940;2023-07-08T07:12:05;4.40;;;2.42;;
80707;SDS011;70222;49.204;-122.940;2023-07-08T07:14:32;4.45;;;2.00;;
80707;SDS011;70222;49.204;-122.940;2023-07-08T07:16:58;4.60;;;2.38;;
80707;SDS011;70222;49.204;-122.940;2023-07-08T07:19:25;4.40;;;2.67;;
80707;SDS011;70222;49.204;-122.940;2023-07-08T07:21:51;3.67;;;2.40;;
80707;SDS011;70222;49.204;-122.940;2023-07-08T07:24:17;4.65;;;2.10;;
80707;SDS011;70222;49.204;-122.940;2023-07-08T07:26:44;5.03;;;2.22;;
80707;SDS011;70222;49.204;-122.940;2023-07-08T07:29:10;5.13;;;2.33;;
80707;SDS011;70222;49.204;-122.940;2023-07-08T07:31:36;4.78;;;2.88;;
80707;SDS011;70222;49.204;-122.940;2023-07-08T07:34:05;4.05;;;2.13;;
80707;SDS011;70222;49.204;-122.940;2023-07-08T07:36:31;3.90;;;2.28;;
80707;SDS011;70222;49.204;-122.940;2023-07-08T07:38:57;3.80;;;2.80;;
80707;SDS011;70222;49.204;-122.940;2023-07-08T07:41:23;5.65;;;2.33;;
80707;SDS011;70222;49.204;-122.940;2023-07-08T07:43:49;3.40;;;2.38;;
80707;SDS011;70222;49.204;-122.940;2023-07-08T07:46:15;4.15;;;2.22;;
80707;SDS011;70222;49.204;-122.940;2023-07-08T07:48:41;3.78;;;2.10;;
80707;SDS011;70222;49.204;-122.940;2023-07-08T07:51:08;4.32;;;2.50;;
80707;SDS011;70222;49.204;-122.940;2023-07-08T07:53:36;4.55;;;2.38;;
80707;SDS011;70222;49.204;-122.940;2023-07-08T07:56:03;5.45;;;2.22;;
80707;SDS011;70222;49.204;-122.940;2023-07-08T07:58:30;4.75;;;2.30;;
80707;SDS011;70222;49.204;-122.940;2023-07-08T08:00:56;3.50;;;2.22;;
80707;SDS011;70222;49.204;-122.940;2023-07-08T08:03:22;4.43;;;2.83;;
80707;SDS011;70222;49.204;-122.940;2023-07-08T08:05:48;4.05;;;2.83;;
80707;SDS011;70222;49.204;-122.940;2023-07-08T08:08:15;3.72;;;2.10;;
80707;SDS011;70222;49.204;-122.940;2023-07-08T08:10:44;3.95;;;2.13;;
80707;SDS011;70222;49.204;-122.940;2023-07-08T08:13:10;4.22;;;2.40;;
80707;SDS011;70222;49.204;-122.940;2023-07-08T08:15:37;3.25;;;1.80;;
80707;SDS011;70222;49.204;-122.940;2023-07-08T08:18:03;3.30;;;2.05;;
80707;SDS011;70222;49.204;-122.940;2023-07-08T08:20:30;4.18;;;2.15;;
80707;SDS011;70222;49.204;-122.940;2023-07-08T08:22:56;3.92;;;2.20;;
80707;SDS011;70222;49.204;-122.940;2023-07-08T08:25:22;4.05;;;2.45;;
80707;SDS011;70222;49.204;-122.940;2023-07-08T08:27:49;3.50;;;2.33;;
80707;SDS011;70222;49.204;-122.940;2023-07-08T08:30:17;6.15;;;2.45;;
80707;SDS011;70222;49.204;-122.940;2023-07-08T08:32:43;2.92;;;2.00;;
80707;SDS011;70222;49.204;-122.940;2023-07-08T08:35:10;3.95;;;2.10;;
80707;SDS011;70222;49.204;-122.940;2023-07-08T08:37:36;2.38;;;1.65;;
80707;SDS011;70222;49.204;-122.940;2023-07-08T08:40:02;4.63;;;2.13;;
80707;SDS011;70222;49.204;-122.940;2023-07-08T08:43:14;4.63;;;2.13;;
80707;SDS011;70222;49.204;-122.940;2023-07-08T08:45:23;4.13;;;2.33;;
80707;SDS011;70222;49.204;-122.940;2023-07-08T08:47:53;3.53;;;2.45;;
80707;SDS011;70222;49.204;-122.940;2023-07-08T08:50:30;3.88;;;2.03;;
80707;SDS011;70222;49.204;-122.940;2023-07-08T08:53:17;4.60;;;2.22;;
80707;SDS011;70222;49.204;-122.940;2023-07-08T08:55:45;3.67;;;2.30;;
80707;SDS011;70222;49.204;-122.940;2023-07-08T08:58:27;3.40;;;2.00;;
80707;SDS011;70222;49.204;-122.940;2023-07-08T09:03:56;3.58;;;2.17;;
80707;SDS011;70222;49.204;-122.940;2023-07-08T09:06:26;3.40;;;1.90;;
80707;SDS011;70222;49.204;-122.940;2023-07-08T09:08:54;3.75;;;1.70;;
80707;SDS011;70222;49.204;-122.940;2023-07-08T09:11:33;3.45;;;2.25;;
80707;SDS011;70222;49.204;-122.940;2023-07-08T09:14:15;4.13;;;1.80;;
80707;SDS011;70222;49.204;-122.940;2023-07-08T09:22:49;3.30;;;1.75;;
80707;SDS011;70222;49.204;-122.940;2023-07-08T09:25:33;4.28;;;2.15;;
80707;SDS011;70222;49.204;-122.940;2023-07-08T09:28:01;4.07;;;1.95;;
80707;SDS011;70222;49.204;-122.940;2023-07-08T09:30:27;3.38;;;2.38;;
80707;SDS011;70222;49.204;-122.940;2023-07-08T09:32:57;3.63;;;1.98;;
80707;SDS011;70222;49.204;-122.940;2023-07-08T09:35:25;4.10;;;2.10;;
80707;SDS011;70222;49.204;-122.940;2023-07-08T09:37:53;4.45;;;2.00;;
80707;SDS011;70222;49.204;-122.940;2023-07-08T09:40:28;4.10;;;2.40;;
80707;SDS011;70222;49.204;-122.940;2023-07-08T09:42:58;4.40;;;2.22;;
80707;SDS011;70222;49.204;-122.940;2023-07-08T09:45:50;5.45;;;2.75;;
80707;SDS011;70222;49.204;-122.940;2023-07-08T09:48:26;4.85;;;2.17;;
80707;SDS011;70222;49.204;-122.940;2023-07-08T09:50:59;4.32;;;2.03;;
80707;SDS011;70222;49.204;-122.940;2023-07-08T09:53:26;3.97;;;2.15;;
80707;SDS011;70222;49.204;-122.940;2023-07-08T09:55:53;2.92;;;1.90;;
80707;SDS011;70222;49.204;-122.940;2023-07-08T09:58:23;3.40;;;2.00;;
80707;SDS011;70222;49.204;-122.940;2023-07-08T10:01:18;3.28;;;2.00;;
80707;SDS011;70222;49.204;-122.940;2023-07-08T10:03:51;3.72;;;2.00;;
80707;SDS011;70222;49.204;-122.940;2023-07-08T10:06:27;3.35;;;1.90;;
80707;SDS011;70222;49.204;-122.940;2023-07-08T10:08:54;3.30;;;2.00;;
80707;SDS011;70222;49.204;-122.940;2023-07-08T10:11:38;3.08;;;1.85;;
80707;SDS011;70222;49.204;-122.940;2023-07-08T10:16:59;4.18;;;2.00;;
80707;SDS011;70222;49.204;-122.940;2023-07-08T10:19:25;3.25;;;1.90;;
80707;SDS011;70222;49.204;-122.940;2023-07-08T10:47:04;4.43;;;2.40;;
80707;SDS011;70222;49.204;-122.940;2023-07-08T10:54:30;3.90;;;1.70;;
80707;SDS011;70222;49.204;-122.940;2023-07-08T10:59:50;4.18;;;2.03;;
80707;SDS011;70222;49.204;-122.940;2023-07-08T11:08:07;3.70;;;2.10;;
80707;SDS011;70222;49.204;-122.940;2023-07-08T11:13:51;3.67;;;1.95;;
80707;SDS011;70222;49.204;-122.940;2023-07-08T11:16:24;4.10;;;2.00;;
80707;SDS011;70222;49.204;-122.940;2023-07-08T11:18:54;4.70;;;2.30;;
80707;SDS011;70222;49.204;-122.940;2023-07-08T11:21:29;3.25;;;1.95;;
80707;SDS011;70222;49.204;-122.940;2023-07-08T11:24:15;2.50;;;1.80;;
80707;SDS011;70222;49.204;-122.940;2023-07-08T11:27:00;3.45;;;1.73;;
80707;SDS011;70222;49.204;-122.940;2023-07-08T11:29:34;4.63;;;2.42;;
80707;SDS011;70222;49.204;-122.940;2023-07-08T11:32:14;3.15;;;1.92;;
80707;SDS011;70222;49.204;-122.940;2023-07-08T11:34:43;3.50;;;1.92;;
80707;SDS011;70222;49.204;-122.940;2023-07-08T11:37:10;4.13;;;2.08;;
80707;SDS011;70222;49.204;-122.940;2023-07-08T11:39:41;3.58;;;2.03;;
80707;SDS011;70222;49.204;-122.940;2023-07-08T11:45:20;4.30;;;2.10;;
80707;SDS011;70222;49.204;-122.940;2023-07-08T11:47:50;3.22;;;1.73;;
80707;SDS011;70222;49.204;-122.940;2023-07-08T11:50:25;3.60;;;1.80;;
80707;SDS011;70222;49.204;-122.940;2023-07-08T11:53:03;3.13;;;2.10;;
80707;SDS011;70222;49.204;-122.940;2023-07-08T12:01:23;4.05;;;1.77;;
80707;SDS011;70222;49.204;-122.940;2023-07-08T12:03:54;4.75;;;2.20;;
80707;SDS011;70222;49.204;-122.940;2023-07-08T12:10:16;3.20;;;1.98;;
80707;SDS011;70222;49.204;-122.940;2023-07-08T12:12:44;5.10;;;1.92;;
80707;SDS011;70222;49.204;-122.940;2023-07-08T12:17:42;2.85;;;1.70;;
80707;SDS011;70222;49.204;-122.940;2023-07-08T12:20:16;3.15;;;2.00;;
80707;SDS011;70222;49.204;-122.940;2023-07-08T12:22:44;3.45;;;2.00;;
80707;SDS011;70222;49.204;-122.940;2023-07-08T12:25:12;4.63;;;2.08;;
80707;SDS011;70222;49.204;-122.940;2023-07-08T12:27:42;3.47;;;1.80;;
80707;SDS011;70222;49.204;-122.940;2023-07-08T12:30:12;4.22;;;2.05;;
80707;SDS011;70222;49.204;-122.940;2023-07-08T12:32:40;4.57;;;1.98;;
80707;SDS011;70222;49.204;-122.940;2023-07-08T12:35:49;4.05;;;2.05;;
80707;SDS011;70222;49.204;-122.940;2023-07-08T12:38:05;2.85;;;1.60;;
80707;SDS011;70222;49.204;-122.940;2023-07-08T12:40:47;3.60;;;1.83;;
80707;SDS011;70222;49.204;-122.940;2023-07-08T12:43:13;2.50;;;1.92;;
80707;SDS011;70222;49.204;-122.940;2023-07-08T12:45:40;4.82;;;2.13;;
80707;SDS011;70222;49.204;-122.940;2023-07-08T12:48:07;3.78;;;2.17;;
80707;SDS011;70222;49.204;-122.940;2023-07-08T12:50:34;2.97;;;1.80;;
80707;SDS011;70222;49.204;-122.940;2023-07-08T12:53:00;3.70;;;1.70;;
80707;SDS011;70222;49.204;-122.940;2023-07-08T12:55:35;3.22;;;1.80;;
80707;SDS011;70222;49.204;-122.940;2023-07-08T12:58:02;3.40;;;2.00;;
80707;SDS011;70222;49.204;-122.940;2023-07-08T13:00:29;4.07;;;1.98;;
80707;SDS011;70222;49.204;-122.940;2023-07-08T13:05:30;3.83;;;1.98;;
80707;SDS011;70222;49.204;-122.940;2023-07-08T13:07:56;3.72;;;1.80;;
80707;SDS011;70222;49.204;-122.940;2023-07-08T13:10:24;4.22;;;1.98;;
80707;SDS011;70222;49.204;-122.940;2023-07-08T13:12:52;4.20;;;2.10;;
80707;SDS011;70222;49.204;-122.940;2023-07-08T13:15:22;4.20;;;1.70;;
80707;SDS011;70222;49.204;-122.940;2023-07-08T13:17:54;4.85;;;2.10;;
80707;SDS011;70222;49.204;-122.940;2023-07-08T13:20:21;3.20;;;1.95;;
80707;SDS011;70222;49.204;-122.940;2023-07-08T13:22:54;5.43;;;1.88;;
80707;SDS011;70222;49.204;-122.940;2023-07-08T13:25:30;4.82;;;2.35;;
80707;SDS011;70222;49.204;-122.940;2023-07-08T13:28:16;5.50;;;2.10;;
80707;SDS011;70222;49.204;-122.940;2023-07-08T13:33:45;2.67;;;1.88;;
80707;SDS011;70222;49.204;-122.940;2023-07-08T13:36:12;2.50;;;1.75;;
80707;SDS011;70222;49.204;-122.940;2023-07-08T13:38:39;3.30;;;2.20;;
80707;SDS011;70222;49.204;-122.940;2023-07-08T13:41:07;3.85;;;1.98;;
80707;SDS011;70222;49.204;-122.940;2023-07-08T13:43:35;3.15;;;2.03;;
80707;SDS011;70222;49.204;-122.940;2023-07-08T13:46:02;4.47;;;2.88;;
80707;SDS011;70222;49.204;-122.940;2023-07-08T13:48:30;4.70;;;2.08;;
80707;SDS011;70222;49.204;-122.940;2023-07-08T13:51:03;4.13;;;2.10;;
80707;SDS011;70222;49.204;-122.940;2023-07-08T13:56:12;4.63;;;2.33;;
80707;SDS011;70222;49.204;-122.940;2023-07-08T13:58:42;4.03;;;2.03;;
80707;SDS011;70222;49.204;-122.940;2023-07-08T14:01:15;7.93;;;2.33;;
80707;SDS011;70222;49.204;-122.940;2023-07-08T14:03:43;2.95;;;1.80;;
80707;SDS011;70222;49.204;-122.940;2023-07-08T14:06:17;4.75;;;1.80;;
80707;SDS011;70222;49.204;-122.940;2023-07-08T14:08:44;3.05;;;2.13;;
80707;SDS011;70222;49.204;-122.940;2023-07-08T14:11:10;3.03;;;2.00;;
80707;SDS011;70222;49.204;-122.940;2023-07-08T14:13:36;4.65;;;2.20;;
80707;SDS011;70222;49.204;-122.940;2023-07-08T14:16:02;5.03;;;2.20;;
80707;SDS011;70222;49.204;-122.940;2023-07-08T14:18:31;3.30;;;1.90;;
80707;SDS011;70222;49.204;-122.940;2023-07-08T14:20:58;5.18;;;2.10;;
80707;SDS011;70222;49.204;-122.940;2023-07-08T14:23:24;3.40;;;1.90;;
80707;SDS011;70222;49.204;-122.940;2023-07-08T14:25:50;2.47;;;2.00;;
80707;SDS011;70222;49.204;-122.940;2023-07-08T14:28:16;4.00;;;2.22;;
80707;SDS011;70222;49.204;-122.940;2023-07-08T14:30:44;3.22;;;2.28;;
80707;SDS011;70222;49.204;-122.940;2023-07-08T14:33:11;3.65;;;2.20;;
80707;SDS011;70222;49.204;-122.940;2023-07-08T14:35:38;5.70;;;2.42;;
80707;SDS011;70222;49.204;-122.940;2023-07-08T14:38:09;5.57;;;2.15;;
80707;SDS011;70222;49.204;-122.940;2023-07-08T14:40:37;4.10;;;2.20;;
80707;SDS011;70222;49.204;-122.940;2023-07-08T14:43:05;4.07;;;1.80;;
80707;SDS011;70222;49.204;-122.940;2023-07-08T14:45:42;2.63;;;1.90;;
80707;SDS011;70222;49.204;-122.940;2023-07-08T14:48:12;3.03;;;1.77;;
80707;SDS011;70222;49.204;-122.940;2023-07-08T14:50:38;2.17;;;1.80;;
80707;SDS011;70222;49.204;-122.940;2023-07-08T14:55:31;6.00;;;2.20;;
80707;SDS011;70222;49.204;-122.940;2023-07-08T14:57:58;4.68;;;2.00;;
80707;SDS011;70222;49.204;-122.940;2023-07-08T15:00:25;5.18;;;2.65;;
80707;SDS011;70222;49.204;-122.940;2023-07-08T15:02:51;4.25;;;1.85;;
80707;SDS011;70222;49.204;-122.940;2023-07-08T15:05:18;3.75;;;1.92;;
80707;SDS011;70222;49.204;-122.940;2023-07-08T15:07:52;3.22;;;1.80;;
80707;SDS011;70222;49.204;-122.940;2023-07-08T15:10:21;3.13;;;1.98;;
80707;SDS011;70222;49.204;-122.940;2023-07-08T15:12:52;4.25;;;1.83;;
80707;SDS011;70222;49.204;-122.940;2023-07-08T15:17:59;5.97;;;1.80;;
80707;SDS011;70222;49.204;-122.940;2023-07-08T15:20:31;3.22;;;1.95;;
80707;SDS011;70222;49.204;-122.940;2023-07-08T15:22:57;4.13;;;1.73;;
80707;SDS011;70222;49.204;-122.940;2023-07-08T15:25:23;3.53;;;2.10;;
80707;SDS011;70222;49.204;-122.940;2023-07-08T15:27:51;3.53;;;1.70;;
80707;SDS011;70222;49.204;-122.940;2023-07-08T15:30:22;4.55;;;1.70;;
80707;SDS011;70222;49.204;-122.940;2023-07-08T15:32:50;4.65;;;2.20;;
80707;SDS011;70222;49.204;-122.940;2023-07-08T15:35:18;3.50;;;1.85;;
80707;SDS011;70222;49.204;-122.940;2023-07-08T15:37:50;4.10;;;2.08;;
80707;SDS011;70222;49.204;-122.940;2023-07-08T15:40:17;3.38;;;2.08;;
80707;SDS011;70222;49.204;-122.940;2023-07-08T15:42:45;3.53;;;1.98;;
80707;SDS011;70222;49.204;-122.940;2023-07-08T15:45:21;3.88;;;2.33;;
80707;SDS011;70222;49.204;-122.940;2023-07-08T15:47:49;4.63;;;2.22;;
80707;SDS011;70222;49.204;-122.940;2023-07-08T15:50:16;3.35;;;1.88;;
80707;SDS011;70222;49.204;-122.940;2023-07-08T15:52:43;3.58;;;1.80;;
80707;SDS011;70222;49.204;-122.940;2023-07-08T15:55:10;4.15;;;2.03;;
80707;SDS011;70222;49.204;-122.940;2023-07-08T15:57:54;4.63;;;2.20;;
80707;SDS011;70222;49.204;-122.940;2023-07-08T16:00:23;3.58;;;2.03;;
80707;SDS011;70222;49.204;-122.940;2023-07-08T16:02:57;3.60;;;1.90;;
80707;SDS011;70222;49.204;-122.940;2023-07-08T16:05:24;2.55;;;1.80;;